Aviation Digital Data Service (ADDS)

Output produced by METARs form (0158 UTC 26 April 2017)
found at http://www.aviationweather.gov/adds/metars/
 
METAR text: KTAZ 260135Z AUTO 17008KT 10SM CLR 22/11 A2954 RMK AO2 T02150112
Conditions at: KTAZ (TAYLORVILLE , IL, US) observed 0135 UTC 26 April 2017
Temperature: 21.5°C (71°F)
Dewpoint: 11.2°C (52°F) [RH = 52%]
Pressure (altimeter): 29.54 inches Hg (1000.4 mb)
Winds: from the S (170 degrees) at 9 MPH (8 knots; 4.2 m/s)
Visibility: 10 or more miles (16+ km)
Ceiling: at least 12,000 feet AGL
Clouds: sky clear below 12,000 feet AGL
Weather: automated observation with no human augmentation;
there may or may not be significant weather present at this time